Ana Sayfa
METAR-TAF:

METAR-TAF

Havaalanları :

Longyearbyen, Norveç

Enlem: 78-15N, Boylam: 015-28E, yükseklik: 2 m

Güncel hava durumu gözlemi

Rapor saat 23:50 UTC de 22 dakika önce yapıldı.
Rüzgar güney/güneydoğudan 2 kt
Sıcaklık -1°C
Nem 93%
Basınç 1022 hPa
Görüş mesafesi 10 km veya daha fazla
400 ft yükseklikte parçalı bulutlu
2100 ft yükseklikte parçalı çok bulutlu
hafif kar

METAR: ENSB 252350Z 15002KT 9999 -SN SCT004 BKN021 M01/M02 Q1022 RMK WIND 1400FT 22003KT

Saat: 02:12 (00:12 UTC)

Tahmin

Ayın 26'si saat 00 UTC'den ayın 26'si saat 24 UTC'ye kadar geçerli Tahmin
Rüzgar değişken yönden 5 kt
Görüş mesafesi 10 km veya daha fazla
1500 ft yükseklikte az bulutlu
2000 ft yükseklikte parçalı çok bulutlu
Geçici
ayın 26'si saat 00 UTC'den ayın 26'si saat 03 UTC'ye kadar
Görüş mesafesi: 4000 m
800 ft yükseklikte parçalı çok bulutlu
hafif kar

TAF: ENSB 2600/2624 VRB05KT 9999 FEW015 BKN020 TEMPO 2600/2603 4000 -SN BKN008

4.000'den fazla havaalanı için hava durumu gözlemleri ve tahminleri (METAR ve TAF raporları).

Kullanılabilir istasyonlar harita üzerinde sarı ve kırmızı noktalarla gösterilir.

İstasyonun adını görmek için fareyi noktanın üzerinde gezdirin.

Sonrasında hava gözlem ve tahminlerini görmek için tıklayın.

Haritayı değiştirmek için: yaklaştırmak için siyah artı işaretli yeşil düğmeye ve uzaklaştırmak için de eksi işaretli düğmeye hızla tıklayın; bitişik haritalar için yeşil okları kullanın.


METAR-TAF: